createdAt,value
2018-11-20T00:00:40.872Z,101892.77
2018-11-20T00:03:49.475Z,101899.14
2018-11-20T00:06:58.277Z,101888.55
2018-11-20T00:10:06.641Z,101903.61
2018-11-20T00:13:15.005Z,101893.78
2018-11-20T00:16:23.350Z,101891.02
2018-11-20T00:19:31.737Z,101897.03
2018-11-20T00:22:40.114Z,101894.18
2018-11-20T00:25:48.480Z,101892.30
2018-11-20T00:28:56.845Z,101891.39
2018-11-20T00:32:05.212Z,101894.98
2018-11-20T00:35:13.588Z,101880.66
2018-11-20T00:38:22.381Z,101882.38
2018-11-20T00:41:30.741Z,101892.37
2018-11-20T00:44:40.489Z,101887.58
2018-11-20T00:47:48.884Z,101877.59
2018-11-20T00:50:57.655Z,101876.05
2018-11-20T00:53:56.742Z,101883.02
2018-11-20T00:57:06.016Z,101874.36
2018-11-20T01:00:14.828Z,101876.67
2018-11-20T01:03:23.188Z,101872.85
2018-11-20T01:06:22.538Z,101872.38
2018-11-20T01:09:30.910Z,101875.63
2018-11-20T01:12:39.299Z,101873.16
2018-11-20T01:15:47.672Z,101867.51
2018-11-20T01:18:56.028Z,101862.38
2018-11-20T01:22:04.392Z,101855.68
2018-11-20T01:25:12.762Z,101861.34
2018-11-20T01:28:21.123Z,101868.48
2018-11-20T01:31:29.505Z,101849.05
2018-11-20T01:34:37.929Z,101850.72
2018-11-20T01:37:35.427Z,101840.77
2018-11-20T01:40:24.915Z,101838.31
2018-11-20T01:43:04.456Z,101834.62
2018-11-20T01:45:46.985Z,101837.03
2018-11-20T01:48:34.906Z,101837.73
2018-11-20T01:51:38.726Z,101832.81
2018-11-20T01:54:47.387Z,101827.36
2018-11-20T01:57:55.801Z,101821.01
2018-11-20T02:01:04.151Z,101815.14
2018-11-20T02:04:12.604Z,101824.66
2018-11-20T02:07:21.086Z,101822.92
2018-11-20T02:10:29.499Z,101822.72
2018-11-20T02:14:16.220Z,101818.02
2018-11-20T02:17:45.120Z,101822.20
2018-11-20T02:20:57.795Z,101818.23
2018-11-20T02:23:35.933Z,101813.23
2018-11-20T02:26:17.253Z,101810.85
2018-11-20T02:29:00.104Z,101804.98
2018-11-20T02:32:04.372Z,101804.41
2018-11-20T02:35:05.551Z,101801.91
2018-11-20T02:37:53.042Z,101803.17
2018-11-20T02:40:30.052Z,101798.78
2018-11-20T02:43:16.847Z,101792.95
2018-11-20T02:46:04.437Z,101802.66
2018-11-20T02:49:13.023Z,101783.73
2018-11-20T02:52:21.397Z,101784.14
2018-11-20T02:55:29.772Z,101775.30
2018-11-20T02:58:38.131Z,101775.77
2018-11-20T03:01:46.593Z,101763.23
2018-11-20T03:04:54.950Z,101753.61
2018-11-20T03:07:57.675Z,101755.21
2018-11-20T03:11:06.023Z,101749.69
2018-11-20T03:14:14.419Z,101743.89
2018-11-20T03:17:23.297Z,101751.97
2018-11-20T03:20:31.689Z,101730.36
2018-11-20T03:23:40.035Z,101735.64
2018-11-20T03:26:49.028Z,101725.18
2018-11-20T03:30:35.431Z,101713.41
2018-11-20T03:33:43.809Z,101718.42
2018-11-20T03:36:52.502Z,101717.61
2018-11-20T03:40:00.871Z,101709.62
2018-11-20T03:42:56.912Z,101706.20
2018-11-20T03:46:05.272Z,101703.50
2018-11-20T03:49:13.649Z,101701.28
2018-11-20T03:52:13.370Z,101692.97
2018-11-20T03:55:21.757Z,101696.81
2018-11-20T03:58:30.402Z,101696.69
2018-11-20T04:01:38.765Z,101695.58
2018-11-20T04:04:46.832Z,101691.13
2018-11-20T04:07:55.176Z,101691.09
2018-11-20T04:11:03.989Z,101694.02
2018-11-20T04:14:12.798Z,101690.02
2018-11-20T04:17:21.170Z,101678.87
2018-11-20T04:20:29.790Z,101721.11
2018-11-20T04:23:38.582Z,101688.25
2018-11-20T04:26:46.960Z,101695.16
2018-11-20T04:29:44.350Z,101698.20
2018-11-20T04:32:52.752Z,101701.75
2018-11-20T04:35:50.427Z,101692.33
2018-11-20T04:38:59.061Z,101701.84
2018-11-20T04:41:58.063Z,101699.70
2018-11-20T04:45:00.937Z,101714.52
2018-11-20T04:47:50.854Z,101712.26
2018-11-20T04:50:49.063Z,101715.39
2018-11-20T04:53:40.937Z,101703.66
2018-11-20T04:56:29.213Z,101716.15
2018-11-20T04:59:37.772Z,101704.58
2018-11-20T05:02:46.224Z,101700.45
2018-11-20T05:05:45.918Z,101711.63
2018-11-20T05:08:54.325Z,101722.25
2018-11-20T05:11:55.638Z,101708.98
2018-11-20T05:15:04.014Z,101713.67
2018-11-20T05:18:12.407Z,101703.09
2018-11-20T05:21:14.187Z,101715.15
2018-11-20T05:24:22.559Z,101711.97
2018-11-20T05:27:30.930Z,101705.06
2018-11-20T05:30:39.340Z,101702.14
2018-11-20T05:33:47.687Z,101704.29
2018-11-20T05:36:56.061Z,101703.83
2018-11-20T05:40:04.910Z,101703.03
2018-11-20T05:43:13.237Z,101711.86
2018-11-20T05:46:21.620Z,101716.56
2018-11-20T05:49:30.012Z,101718.11
2018-11-20T05:52:38.361Z,101728.55
2018-11-20T05:55:46.743Z,101740.84
2018-11-20T05:58:55.156Z,101731.02
2018-11-20T06:02:03.849Z,101732.19
2018-11-20T06:05:12.244Z,101749.22
2018-11-20T06:08:09.134Z,101738.41
2018-11-20T06:11:17.524Z,101739.47
2018-11-20T06:14:25.937Z,101729.59
2018-11-20T06:20:44.286Z,101739.20
2018-11-20T06:23:52.666Z,101734.05
2018-11-20T06:27:01.340Z,101747.38
2018-11-20T06:30:09.689Z,101742.61
2018-11-20T06:33:18.066Z,101742.00
2018-11-20T06:36:26.522Z,101745.06
2018-11-20T06:39:34.921Z,101741.98
2018-11-20T06:42:43.307Z,101755.19
2018-11-20T06:45:42.963Z,101750.28
2018-11-20T06:48:51.352Z,101742.45
2018-11-20T06:51:59.725Z,101743.47
2018-11-20T06:55:08.130Z,101718.21
2018-11-20T06:58:07.042Z,101734.64
2018-11-20T07:01:15.433Z,101746.13
2018-11-20T07:04:23.881Z,101743.97
2018-11-20T07:07:32.421Z,101745.25
2018-11-20T07:10:40.633Z,101755.27
2018-11-20T07:13:51.104Z,101756.17
2018-11-20T07:17:01.181Z,101748.73
2018-11-20T07:20:09.571Z,101741.72
2018-11-20T07:23:18.390Z,101742.29
2018-11-20T07:26:26.794Z,101746.91
2018-11-20T07:29:32.353Z,101738.97
2018-11-20T07:32:40.718Z,101743.59
2018-11-20T07:35:36.165Z,101726.97
2018-11-20T07:38:44.534Z,101722.22
2018-11-20T07:41:44.485Z,101718.69
2018-11-20T07:44:52.983Z,101723.12
2018-11-20T07:48:01.383Z,101718.83
2018-11-20T07:51:02.877Z,101712.33
2018-11-20T07:54:11.241Z,101707.02
2018-11-20T07:57:20.171Z,101715.37
2018-11-20T08:00:28.533Z,101706.64
2018-11-20T08:03:37.233Z,101716.55
2018-11-20T08:06:45.612Z,101709.19
2018-11-20T08:09:53.993Z,101711.13
2018-11-20T08:13:02.410Z,101709.69
2018-11-20T08:16:10.822Z,101698.84
2018-11-20T08:19:06.463Z,101701.88
2018-11-20T08:22:14.861Z,101697.09
2018-11-20T08:25:16.008Z,101701.84
2018-11-20T08:28:24.440Z,101696.85
2018-11-20T08:31:33.103Z,101696.78
2018-11-20T08:34:21.390Z,101688.02
2018-11-20T08:37:03.140Z,101691.36
2018-11-20T08:40:01.468Z,101684.91
2018-11-20T08:42:45.775Z,101693.70
2018-11-20T08:45:35.792Z,101696.62
2018-11-20T08:48:23.657Z,101688.59
2018-11-20T08:51:27.719Z,101679.34
2018-11-20T08:54:35.527Z,101683.16
2018-11-20T08:57:43.389Z,101679.22
2018-11-20T09:00:51.856Z,101673.02
2018-11-20T09:04:00.658Z,101677.61
2018-11-20T09:07:09.053Z,101672.27
2018-11-20T09:10:17.535Z,101678.75
2018-11-20T09:13:26.077Z,101681.44
2018-11-20T09:16:13.854Z,101670.16
2018-11-20T09:19:01.572Z,101664.13
2018-11-20T09:21:43.646Z,101667.63
2018-11-20T09:24:35.724Z,101669.27
2018-11-20T09:27:34.013Z,101673.45
2018-11-20T09:30:32.857Z,101663.09
2018-11-20T09:33:15.680Z,101659.09
2018-11-20T09:36:11.589Z,101664.22
2018-11-20T09:39:00.919Z,101654.79
2018-11-20T09:41:57.118Z,101655.50
2018-11-20T09:44:56.367Z,101642.84
2018-11-20T09:47:46.599Z,101634.70
2018-11-20T09:50:43.955Z,101634.35
2018-11-20T09:53:39.262Z,101624.13
2018-11-20T09:56:41.181Z,101609.91
2018-11-20T09:59:33.829Z,101611.12
2018-11-20T10:02:20.617Z,101606.73
2018-11-20T10:05:08.095Z,101606.97
2018-11-20T10:07:56.959Z,101597.70
2018-11-20T10:10:44.921Z,101595.45
2018-11-20T10:13:41.127Z,101597.47
2018-11-20T10:16:33.511Z,101594.28
2018-11-20T10:19:21.368Z,101595.36
2018-11-20T10:22:09.108Z,101599.80
2018-11-20T10:25:14.201Z,101606.56
2018-11-20T10:27:59.512Z,101592.81
2018-11-20T10:30:48.927Z,101598.55
2018-11-20T10:33:36.416Z,101586.29
2018-11-20T10:36:20.154Z,101589.77
2018-11-20T10:39:03.972Z,101585.95
2018-11-20T10:42:05.573Z,101585.80
2018-11-20T10:44:55.095Z,101587.50
2018-11-20T10:47:44.399Z,101574.20
2018-11-20T10:50:32.012Z,101592.06
2018-11-20T10:53:10.366Z,101579.07
2018-11-20T10:56:04.020Z,101572.92
2018-11-20T10:58:57.553Z,101578.00
2018-11-20T11:01:45.773Z,101569.95
2018-11-20T11:04:33.212Z,101569.55
2018-11-20T11:07:28.555Z,101569.98
2018-11-20T11:10:23.335Z,101583.00
2018-11-20T11:13:29.402Z,101558.58
2018-11-20T11:16:10.830Z,101569.27
2018-11-20T11:18:53.909Z,101560.97
2018-11-20T11:21:43.183Z,101565.74
2018-11-20T11:24:31.120Z,101564.32
2018-11-20T11:27:18.837Z,101565.59
2018-11-20T11:30:09.155Z,101556.43
2018-11-20T11:32:57.057Z,101561.45
2018-11-20T11:35:45.261Z,101553.10
2018-11-20T11:38:43.193Z,101549.25
2018-11-20T11:41:35.324Z,101561.26
2018-11-20T11:44:30.968Z,101552.39
2018-11-20T11:47:32.291Z,101555.39
2018-11-20T11:50:19.780Z,101543.83
2018-11-20T11:53:08.519Z,101543.79
2018-11-20T11:56:16.090Z,101537.98
2018-11-20T11:59:23.733Z,101540.12
2018-11-20T12:05:07.080Z,101547.98
2018-11-20T12:07:49.935Z,101542.02
2018-11-20T12:10:30.818Z,101542.98
2018-11-20T12:16:03.155Z,101544.70
2018-11-20T12:18:58.314Z,101534.02
2018-11-20T12:22:00.230Z,101533.73
2018-11-20T12:25:04.674Z,101531.83
2018-11-20T12:27:52.514Z,101522.92
2018-11-20T12:30:42.283Z,101519.59
2018-11-20T12:33:30.155Z,101521.78
2018-11-20T12:36:14.466Z,101517.35
2018-11-20T12:39:02.705Z,101516.70
2018-11-20T12:41:53.660Z,101524.38
2018-11-20T12:44:38.377Z,101504.47
2018-11-20T12:47:18.746Z,101500.94
2018-11-20T12:50:10.669Z,101488.07
2018-11-20T12:52:57.387Z,101484.55
2018-11-20T12:55:45.880Z,101492.61
2018-11-20T12:58:37.426Z,101502.08
2018-11-20T13:01:25.154Z,101496.27
2018-11-20T13:04:20.120Z,101488.75
2018-11-20T13:07:17.723Z,101490.61
2018-11-20T13:10:04.941Z,101493.16
2018-11-20T13:12:52.710Z,101491.17
2018-11-20T13:15:38.559Z,101483.28
2018-11-20T13:18:26.341Z,101491.70
2018-11-20T13:21:14.081Z,101485.18
2018-11-20T13:24:02.721Z,101487.55
2018-11-20T13:26:50.585Z,101472.30
2018-11-20T13:29:40.280Z,101463.72
2018-11-20T13:32:29.761Z,101468.16
2018-11-20T13:36:03.254Z,101463.02
2018-11-20T13:39:11.874Z,101471.20
2018-11-20T13:42:23.344Z,101469.28
2018-11-20T13:45:20.308Z,101463.44
2018-11-20T13:48:17.900Z,101453.53
2018-11-20T13:51:25.507Z,101451.53
2018-11-20T13:54:33.081Z,101455.69
2018-11-20T13:57:40.735Z,101453.84
2018-11-20T14:00:48.865Z,101456.00
2018-11-20T14:03:56.381Z,101455.80
2018-11-20T14:07:03.975Z,101443.25
2018-11-20T14:10:12.024Z,101439.48
2018-11-20T14:13:19.621Z,101424.52
2018-11-20T14:16:27.218Z,101426.61
2018-11-20T14:19:34.763Z,101422.11
2018-11-20T14:22:42.416Z,101415.10
2018-11-20T14:25:50.246Z,101397.85
2018-11-20T14:28:57.832Z,101394.44
2018-11-20T14:32:05.362Z,101383.86
2018-11-20T14:35:13.203Z,101384.92
2018-11-20T14:38:21.039Z,101396.72
2018-11-20T14:41:28.604Z,101388.45
2018-11-20T14:44:36.232Z,101375.01
2018-11-20T14:47:43.792Z,101386.77
2018-11-20T14:50:51.783Z,101380.66
2018-11-20T14:53:59.367Z,101387.48
2018-11-20T14:57:06.949Z,101382.55
2018-11-20T15:00:14.511Z,101385.00
2018-11-20T15:03:22.067Z,101383.92
2018-11-20T15:06:21.842Z,101385.72
2018-11-20T15:09:29.742Z,101389.30
2018-11-20T15:12:37.315Z,101397.36
2018-11-20T15:15:45.663Z,101393.14
2018-11-20T15:18:53.229Z,101393.69
2018-11-20T15:22:00.794Z,101396.89
2018-11-20T15:25:08.445Z,101398.81
2018-11-20T15:28:15.988Z,101408.64
2018-11-20T15:31:23.569Z,101396.23
2018-11-20T15:34:31.130Z,101397.52
2018-11-20T15:37:29.041Z,101392.11
2018-11-20T15:40:15.713Z,101392.20
2018-11-20T15:43:07.324Z,101388.78
2018-11-20T15:45:49.855Z,101401.98
2018-11-20T15:48:57.515Z,101392.92
2018-11-20T15:52:05.227Z,101403.56
2018-11-20T15:55:06.283Z,101396.55
2018-11-20T15:58:13.894Z,101399.58
2018-11-20T16:01:23.177Z,101404.06
2018-11-20T16:04:29.543Z,101406.56
2018-11-20T16:07:37.108Z,101405.22
2018-11-20T16:10:44.700Z,101419.30
2018-11-20T16:13:52.325Z,101416.47
2018-11-20T16:16:59.958Z,101419.17
2018-11-20T16:20:07.902Z,101419.36
2018-11-20T16:23:15.482Z,101435.16
2018-11-20T16:26:23.060Z,101429.66
2018-11-20T16:29:30.932Z,101439.35
2018-11-20T16:32:38.501Z,101446.28
2018-11-20T16:35:46.504Z,101445.25
2018-11-20T16:38:54.457Z,101457.20
2018-11-20T16:42:02.025Z,101460.81
2018-11-20T16:45:09.845Z,101458.96
2018-11-20T16:48:17.675Z,101467.95
2018-11-20T16:51:25.233Z,101455.21
2018-11-20T16:54:32.789Z,101457.52
2018-11-20T16:57:40.380Z,101458.28
2018-11-20T17:00:47.932Z,101456.48
2018-11-20T17:03:55.641Z,101475.62
2018-11-20T17:06:55.850Z,101460.05
2018-11-20T17:10:03.888Z,101471.17
2018-11-20T17:13:11.625Z,101465.61
2018-11-20T17:16:19.381Z,101465.59
2018-11-20T17:19:27.190Z,101466.27
2018-11-20T17:22:34.757Z,101464.19
2018-11-20T17:25:42.306Z,101474.52
2018-11-20T17:28:49.848Z,101472.79
2018-11-20T17:31:49.448Z,101469.59
2018-11-20T17:34:56.980Z,101468.82
2018-11-20T17:37:57.598Z,101464.44
2018-11-20T17:41:05.465Z,101465.36
2018-11-20T17:44:12.992Z,101469.30
2018-11-20T17:47:20.548Z,101464.50
2018-11-20T17:50:28.418Z,101465.47
2018-11-20T17:53:36.004Z,101465.36
2018-11-20T17:56:43.584Z,101467.86
2018-11-20T17:59:51.171Z,101467.45
2018-11-20T18:02:58.808Z,101466.98
2018-11-20T18:06:06.375Z,101464.66
2018-11-20T18:09:13.936Z,101460.68
2018-11-20T18:12:21.480Z,101468.63
2018-11-20T18:15:29.035Z,101464.44
2018-11-20T18:18:36.616Z,101464.75
2018-11-20T18:21:44.185Z,101468.95
2018-11-20T18:24:51.758Z,101463.86
2018-11-20T18:27:49.628Z,101476.30
2018-11-20T18:30:57.188Z,101467.70
2018-11-20T18:34:05.000Z,101475.03
2018-11-20T18:37:12.545Z,101463.61
2018-11-20T18:40:20.570Z,101466.42
2018-11-20T18:43:28.634Z,101468.97
2018-11-20T18:46:36.210Z,101469.02
2018-11-20T18:49:44.199Z,101484.02
2018-11-20T18:52:51.837Z,101471.31
2018-11-20T18:55:59.397Z,101484.84
2018-11-20T18:58:54.969Z,101482.55
2018-11-20T19:01:50.416Z,101471.31
2018-11-20T19:04:58.457Z,101474.37
2018-11-20T19:07:56.682Z,101477.94
2018-11-20T19:11:04.392Z,101481.14
2018-11-20T19:14:12.013Z,101476.45
2018-11-20T19:17:19.882Z,101478.94
2018-11-20T19:20:27.404Z,101470.71
2018-11-20T19:23:34.952Z,101472.30
2018-11-20T19:26:30.497Z,101472.27
2018-11-20T19:29:38.073Z,101467.75
2018-11-20T19:32:45.663Z,101458.60
2018-11-20T19:35:43.177Z,101459.93
2018-11-20T19:38:50.738Z,101450.87
2018-11-20T19:41:58.824Z,101462.12
2018-11-20T19:45:06.601Z,101467.85
2018-11-20T19:48:14.856Z,101476.11
2018-11-20T19:51:23.429Z,101479.41
2018-11-20T19:54:31.464Z,101479.77
2018-11-20T19:57:39.545Z,101463.07
2018-11-20T20:00:47.986Z,101479.45
2018-11-20T20:03:55.602Z,101483.84
2018-11-20T20:07:03.305Z,101481.92
2018-11-20T20:10:17.614Z,101481.95
2018-11-20T20:13:23.207Z,101482.57
2018-11-20T20:16:29.531Z,101477.55
2018-11-20T20:19:37.115Z,101484.39
2018-11-20T20:22:45.289Z,101486.72
2018-11-20T20:25:53.116Z,101498.89
2018-11-20T20:29:00.859Z,101491.23
2018-11-20T20:32:08.873Z,101507.81
2018-11-20T20:35:16.604Z,101505.08
2018-11-20T20:38:25.265Z,101503.19
2018-11-20T20:41:52.344Z,101517.34
2018-11-20T20:44:54.004Z,101512.25
2018-11-20T20:48:02.302Z,101518.16
2018-11-20T20:50:58.979Z,101530.53
2018-11-20T20:54:12.372Z,101529.99
2018-11-20T20:57:15.655Z,101529.28
2018-11-20T21:00:25.108Z,101527.36
2018-11-20T21:03:32.961Z,101534.72
2018-11-20T21:06:33.754Z,101544.19
2018-11-20T21:09:41.691Z,101550.55
2018-11-20T21:12:49.256Z,101539.47
2018-11-20T21:15:57.612Z,101543.34
2018-11-20T21:19:06.217Z,101541.84
2018-11-20T21:22:14.109Z,101545.78
2018-11-20T21:25:22.144Z,101545.22
2018-11-20T21:28:30.379Z,101540.03
2018-11-20T21:31:38.463Z,101554.39
2018-11-20T21:34:46.445Z,101553.70
2018-11-20T21:37:54.442Z,101547.76
2018-11-20T21:41:01.997Z,101550.47
2018-11-20T21:44:10.448Z,101551.12
2018-11-20T21:47:18.676Z,101557.85
2018-11-20T21:50:27.610Z,101559.70
2018-11-20T21:53:36.162Z,101565.86
2018-11-20T21:56:44.382Z,101563.23
2018-11-20T22:00:13.867Z,101567.23
2018-11-20T22:03:22.561Z,101567.76
2018-11-20T22:06:21.519Z,101560.00
2018-11-20T22:09:29.779Z,101559.29
2018-11-20T22:12:37.354Z,101570.62
2018-11-20T22:15:45.672Z,101572.08
2018-11-20T22:18:53.592Z,101567.78
2018-11-20T22:21:56.554Z,101569.14
2018-11-20T22:25:04.758Z,101567.78
2018-11-20T22:28:04.780Z,101566.19
2018-11-20T22:31:12.424Z,101579.47
2018-11-20T22:34:20.843Z,101578.93
2018-11-20T22:37:29.164Z,101580.06
2018-11-20T22:40:36.739Z,101572.53
2018-11-20T22:43:44.834Z,101573.90
2018-11-20T22:46:53.203Z,101562.02
2018-11-20T22:50:01.635Z,101576.77
2018-11-20T22:53:09.672Z,101567.98
2018-11-20T22:56:17.862Z,101575.93
2018-11-20T22:59:26.273Z,101592.73
2018-11-20T23:02:34.208Z,101591.11
2018-11-20T23:05:41.007Z,101591.95
2018-11-20T23:08:29.929Z,101593.89
2018-11-20T23:11:18.393Z,101591.24
2018-11-20T23:14:08.040Z,101588.63
2018-11-20T23:16:37.253Z,101598.42
2018-11-20T23:19:07.282Z,101600.08
2018-11-20T23:21:55.768Z,101593.03
2018-11-20T23:24:44.658Z,101586.63
2018-11-20T23:27:33.129Z,101592.58
2018-11-20T23:30:22.420Z,101591.83
2018-11-20T23:32:51.384Z,101582.72
2018-11-20T23:35:21.121Z,101606.98
2018-11-20T23:37:50.427Z,101600.66
2018-11-20T23:40:19.404Z,101598.77
2018-11-20T23:42:48.382Z,101594.16
2018-11-20T23:45:17.340Z,101599.09
2018-11-20T23:47:47.205Z,101594.28
2018-11-20T23:50:17.032Z,101597.98
2018-11-20T23:52:46.662Z,101593.75
2018-11-20T23:55:16.082Z,101595.23
2018-11-20T23:57:45.828Z,101593.64
